Bismarck (BIS/KBIS)

Map

Destinations

Information

Location
Bismarck, ND
Local Time
18:25 / 6:25 pm
GMT Time
00:25 / 12:25 am
Gates
Unassigned
No FAA reported delays
METAR KBIS 222352Z 03007KT 10SM SCT013 OVC026 01/M01 A2992 RMK AO2 SLP150 60004 T00111011 10017 20011 51011
TAF KBIS 222325Z 2300/2324 01007KT P6SM OVC015 FM230300 36005KT 6SM BR OVC010 FM231200 05006KT 1SM BR OVC008 FM231600 06008KT 3SM BR OVC015 FM231800 05010KT P6SM BKN020
  • No charts available